sensor_id;sensor_type;location;lat;lon;timestamp;pressure;altitude;pressure_sealevel;temperature;humidity
47166;BME280;32930;51.112;13.762;2023-02-10T00:17:34;101038.59;;;0.36;61.26
47166;BME280;32930;51.112;13.762;2023-02-10T00:20:00;101026.84;;;0.49;60.94
47166;BME280;32930;51.112;13.762;2023-02-10T00:22:25;101033.84;;;0.41;61.24
47166;BME280;32930;51.112;13.762;2023-02-10T00:24:51;101033.19;;;0.55;60.73
47166;BME280;32930;51.112;13.762;2023-02-10T01:03:07;101059.13;;;0.29;61.66
47166;BME280;32930;51.112;13.762;2023-02-10T01:05:33;101055.19;;;0.33;61.45
47166;BME280;32930;51.112;13.762;2023-02-10T01:10:25;101055.69;;;0.40;61.38
47166;BME280;32930;51.112;13.762;2023-02-10T01:12:51;101062.53;;;0.18;61.93
47166;BME280;32930;51.112;13.762;2023-02-10T01:15:27;101056.19;;;0.23;62.24
47166;BME280;32930;51.112;13.762;2023-02-10T01:17:53;101073.09;;;0.01;62.36
47166;BME280;32930;51.112;13.762;2023-02-10T01:35:31;101070.41;;;-0.13;62.34
47166;BME280;32930;51.112;13.762;2023-02-10T01:37:57;101067.91;;;-0.25;62.39
47166;BME280;32930;51.112;13.762;2023-02-10T02:01:17;101080.72;;;-0.33;62.23
47166;BME280;32930;51.112;13.762;2023-02-10T02:03:43;101077.75;;;-0.39;63.23
47166;BME280;32930;51.112;13.762;2023-02-10T02:06:10;101076.19;;;-0.49;62.74
47166;BME280;32930;51.112;13.762;2023-02-10T02:08:37;101068.50;;;-0.51;62.57
47166;BME280;32930;51.112;13.762;2023-02-10T02:25:00;101081.78;;;-0.53;63.72
47166;BME280;32930;51.112;13.762;2023-02-10T02:33:26;101091.28;;;-0.61;62.58
47166;BME280;32930;51.112;13.762;2023-02-10T02:36:03;101078.63;;;-0.73;63.60
47166;BME280;32930;51.112;13.762;2023-02-10T02:38:29;101088.94;;;-0.70;63.62
47166;BME280;32930;51.112;13.762;2023-02-10T03:09:24;101089.16;;;-0.66;64.51
47166;BME280;32930;51.112;13.762;2023-02-10T03:11:50;101081.41;;;-0.58;64.69
47166;BME280;32930;51.112;13.762;2023-02-10T03:29:48;101087.44;;;-0.10;64.61
47166;BME280;32930;51.112;13.762;2023-02-10T03:32:16;101081.53;;;0.13;63.67
47166;BME280;32930;51.112;13.762;2023-02-10T04:30:04;101122.03;;;0.86;64.88
47166;BME280;32930;51.112;13.762;2023-02-10T04:32:30;101128.19;;;0.90;64.52
47166;BME280;32930;51.112;13.762;2023-02-10T04:58:14;101150.97;;;1.15;72.02
47166;BME280;32930;51.112;13.762;2023-02-10T05:00:39;101150.09;;;1.14;73.67
47166;BME280;32930;51.112;13.762;2023-02-10T05:18:38;101165.81;;;1.35;74.17
47166;BME280;32930;51.112;13.762;2023-02-10T05:21:08;101165.31;;;1.28;74.77
47166;BME280;32930;51.112;13.762;2023-02-10T05:41:42;101173.31;;;1.34;74.53
47166;BME280;32930;51.112;13.762;2023-02-10T05:44:10;101184.69;;;1.52;74.14
47166;BME280;32930;51.112;13.762;2023-02-10T05:46:49;101178.16;;;1.31;75.04
47166;BME280;32930;51.112;13.762;2023-02-10T05:49:24;101178.56;;;1.49;74.61
47166;BME280;32930;51.112;13.762;2023-02-10T05:51:50;101178.78;;;1.40;74.09
47166;BME280;32930;51.112;13.762;2023-02-10T05:54:15;101185.06;;;1.45;74.24
47166;BME280;32930;51.112;13.762;2023-02-10T05:56:41;101188.19;;;1.29;75.25
47166;BME280;32930;51.112;13.762;2023-02-10T05:59:07;101198.19;;;1.28;74.86
47166;BME280;32930;51.112;13.762;2023-02-10T06:01:33;101198.19;;;1.28;75.03
47166;BME280;32930;51.112;13.762;2023-02-10T06:03:59;101196.91;;;1.46;74.78
47166;BME280;32930;51.112;13.762;2023-02-10T06:06:24;101206.38;;;1.37;75.58
47166;BME280;32930;51.112;13.762;2023-02-10T06:08:50;101206.47;;;1.38;75.88
47166;BME280;32930;51.112;13.762;2023-02-10T06:11:15;101213.63;;;1.32;76.02
47166;BME280;32930;51.112;13.762;2023-02-10T06:13:42;101214.06;;;1.38;75.13
47166;BME280;32930;51.112;13.762;2023-02-10T06:16:08;101216.34;;;1.47;75.53
47166;BME280;32930;51.112;13.762;2023-02-10T06:18:34;101214.41;;;1.43;75.57
47166;BME280;32930;51.112;13.762;2023-02-10T06:21:00;101220.25;;;1.42;75.39
47166;BME280;32930;51.112;13.762;2023-02-10T06:23:26;101217.16;;;1.71;74.13
47166;BME280;32930;51.112;13.762;2023-02-10T06:25:52;101215.50;;;1.72;72.79
47166;BME280;32930;51.112;13.762;2023-02-10T06:28:24;101219.50;;;1.56;74.71
47166;BME280;32930;51.112;13.762;2023-02-10T06:30:49;101213.78;;;1.59;73.58
47166;BME280;32930;51.112;13.762;2023-02-10T06:33:16;101216.22;;;1.82;72.93
47166;BME280;32930;51.112;13.762;2023-02-10T06:35:41;101226.13;;;1.79;73.25
47166;BME280;32930;51.112;13.762;2023-02-10T06:38:07;101234.72;;;1.45;74.35
47166;BME280;32930;51.112;13.762;2023-02-10T06:40:32;101230.22;;;1.77;73.10
47166;BME280;32930;51.112;13.762;2023-02-10T06:42:58;101230.09;;;1.76;72.75
47166;BME280;32930;51.112;13.762;2023-02-10T06:45:24;101237.56;;;1.86;72.50
47166;BME280;32930;51.112;13.762;2023-02-10T06:47:49;101237.41;;;1.71;72.93
47166;BME280;32930;51.112;13.762;2023-02-10T06:50:15;101238.22;;;1.58;74.42
47166;BME280;32930;51.112;13.762;2023-02-10T06:52:43;101241.00;;;1.75;74.07
47166;BME280;32930;51.112;13.762;2023-02-10T06:55:09;101245.59;;;1.55;74.77
47166;BME280;32930;51.112;13.762;2023-02-10T06:57:36;101258.44;;;1.58;75.22
47166;BME280;32930;51.112;13.762;2023-02-10T07:00:07;101252.03;;;1.63;74.66
47166;BME280;32930;51.112;13.762;2023-02-10T07:02:34;101252.72;;;1.61;74.98
47166;BME280;32930;51.112;13.762;2023-02-10T07:04:59;101261.06;;;1.60;75.71
47166;BME280;32930;51.112;13.762;2023-02-10T07:07:26;101255.31;;;1.74;75.51
47166;BME280;32930;51.112;13.762;2023-02-10T07:09:52;101256.38;;;1.78;74.23
47166;BME280;32930;51.112;13.762;2023-02-10T07:12:19;101267.97;;;1.62;74.66
47166;BME280;32930;51.112;13.762;2023-02-10T07:14:45;101269.50;;;1.72;74.93
47166;BME280;32930;51.112;13.762;2023-02-10T07:17:11;101265.28;;;1.84;75.20
47166;BME280;32930;51.112;13.762;2023-02-10T07:19:37;101259.91;;;1.80;74.59
47166;BME280;32930;51.112;13.762;2023-02-10T07:22:02;101272.00;;;1.84;75.65
47166;BME280;32930;51.112;13.762;2023-02-10T07:24:31;101272.66;;;1.81;75.02
47166;BME280;32930;51.112;13.762;2023-02-10T07:26:56;101280.72;;;2.01;74.57
47166;BME280;32930;51.112;13.762;2023-02-10T07:29:22;101274.41;;;2.07;74.57
47166;BME280;32930;51.112;13.762;2023-02-10T07:31:47;101274.09;;;2.28;72.97
47166;BME280;32930;51.112;13.762;2023-02-10T07:34:13;101276.19;;;2.08;73.12
47166;BME280;32930;51.112;13.762;2023-02-10T07:36:39;101269.09;;;2.16;73.62
47166;BME280;32930;51.112;13.762;2023-02-10T07:39:04;101260.41;;;2.13;74.09
47166;BME280;32930;51.112;13.762;2023-02-10T07:41:30;101260.06;;;2.33;72.69
47166;BME280;32930;51.112;13.762;2023-02-10T07:43:55;101274.88;;;2.02;75.01
47166;BME280;32930;51.112;13.762;2023-02-10T07:46:21;101282.38;;;2.00;75.41
47166;BME280;32930;51.112;13.762;2023-02-10T07:48:46;101274.84;;;2.27;75.03
47166;BME280;32930;51.112;13.762;2023-02-10T07:51:12;101276.44;;;2.38;73.44
47166;BME280;32930;51.112;13.762;2023-02-10T07:53:37;101273.81;;;2.37;74.38
47166;BME280;32930;51.112;13.762;2023-02-10T07:56:04;101275.19;;;2.45;73.76
47166;BME280;32930;51.112;13.762;2023-02-10T07:58:29;101275.72;;;2.52;73.65
47166;BME280;32930;51.112;13.762;2023-02-10T08:00:55;101275.72;;;2.52;73.95
47166;BME280;32930;51.112;13.762;2023-02-10T08:03:21;101280.53;;;2.36;75.21
47166;BME280;32930;51.112;13.762;2023-02-10T08:05:47;101291.31;;;2.59;74.19
47166;BME280;32930;51.112;13.762;2023-02-10T08:08:15;101289.22;;;2.40;75.45
47166;BME280;32930;51.112;13.762;2023-02-10T08:10:41;101282.28;;;2.24;76.58
47166;BME280;32930;51.112;13.762;2023-02-10T08:13:07;101291.66;;;2.13;77.74
47166;BME280;32930;51.112;13.762;2023-02-10T08:15:33;101297.91;;;2.43;77.00
47166;BME280;32930;51.112;13.762;2023-02-10T08:18:00;101286.56;;;2.38;77.20
47166;BME280;32930;51.112;13.762;2023-02-10T08:20:26;101293.56;;;2.29;77.93
47166;BME280;32930;51.112;13.762;2023-02-10T08:22:56;101289.72;;;2.61;75.45
47166;BME280;32930;51.112;13.762;2023-02-10T08:25:22;101278.94;;;2.63;75.34
47166;BME280;32930;51.112;13.762;2023-02-10T08:30:30;101287.78;;;2.57;75.73
47166;BME280;32930;51.112;13.762;2023-02-10T08:33:03;101288.97;;;2.62;76.37
47166;BME280;32930;51.112;13.762;2023-02-10T08:35:43;101302.00;;;2.54;77.19
47166;BME280;32930;51.112;13.762;2023-02-10T08:40:35;101306.38;;;2.44;78.05
47166;BME280;32930;51.112;13.762;2023-02-10T08:43:01;101309.25;;;2.62;77.15
47166;BME280;32930;51.112;13.762;2023-02-10T08:45:27;101311.94;;;2.65;76.86
47166;BME280;32930;51.112;13.762;2023-02-10T08:47:52;101311.94;;;2.65;77.64
47166;BME280;32930;51.112;13.762;2023-02-10T08:50:18;101315.59;;;2.68;77.66
47166;BME280;32930;51.112;13.762;2023-02-10T08:52:43;101325.81;;;2.70;77.35
47166;BME280;32930;51.112;13.762;2023-02-10T09:29:41;101356.22;;;2.83;79.08
47166;BME280;32930;51.112;13.762;2023-02-10T10:48:31;101325.91;;;3.24;79.57
47166;BME280;32930;51.112;13.762;2023-02-10T10:51:21;101336.25;;;3.28;79.61
47166;BME280;32930;51.112;13.762;2023-02-10T10:56:56;101342.91;;;3.25;80.09
47166;BME280;32930;51.112;13.762;2023-02-10T11:21:41;101349.66;;;3.25;80.26
47166;BME280;32930;51.112;13.762;2023-02-10T11:26:56;101365.44;;;3.34;80.77
47166;BME280;32930;51.112;13.762;2023-02-10T11:29:22;101354.72;;;3.25;80.44
47166;BME280;32930;51.112;13.762;2023-02-10T11:31:51;101353.53;;;3.33;80.82
47166;BME280;32930;51.112;13.762;2023-02-10T11:36:46;101364.47;;;3.45;80.91
47166;BME280;32930;51.112;13.762;2023-02-10T11:39:27;101360.53;;;3.37;79.49
47166;BME280;32930;51.112;13.762;2023-02-10T11:41:54;101358.41;;;3.30;81.23
47166;BME280;32930;51.112;13.762;2023-02-10T11:44:29;101350.41;;;3.51;79.98
47166;BME280;32930;51.112;13.762;2023-02-10T13:23:49;101271.59;;;4.63;74.97
47166;BME280;32930;51.112;13.762;2023-02-10T13:28:48;101265.84;;;4.65;74.51
47166;BME280;32930;51.112;13.762;2023-02-10T13:31:35;101249.25;;;4.72;75.27
47166;BME280;32930;51.112;13.762;2023-02-10T13:34:32;101263.91;;;4.61;75.86
47166;BME280;32930;51.112;13.762;2023-02-10T13:39:46;101265.31;;;4.56;77.52
47166;BME280;32930;51.112;13.762;2023-02-10T13:45:01;101261.44;;;4.78;74.39
47166;BME280;32930;51.112;13.762;2023-02-10T13:47:36;101255.94;;;4.70;74.69
47166;BME280;32930;51.112;13.762;2023-02-10T13:58:31;101245.50;;;4.80;74.43
47166;BME280;32930;51.112;13.762;2023-02-10T14:00:58;101247.94;;;4.79;74.25
47166;BME280;32930;51.112;13.762;2023-02-10T14:03:27;101247.59;;;4.73;75.20
47166;BME280;32930;51.112;13.762;2023-02-10T14:08:37;101244.34;;;4.90;74.13
47166;BME280;32930;51.112;13.762;2023-02-10T14:13:33;101241.56;;;4.85;73.91
47166;BME280;32930;51.112;13.762;2023-02-10T14:16:05;101239.94;;;4.87;73.48
47166;BME280;32930;51.112;13.762;2023-02-10T14:18:34;101250.69;;;4.67;75.43
47166;BME280;32930;51.112;13.762;2023-02-10T14:21:14;101244.28;;;4.74;74.78
47166;BME280;32930;51.112;13.762;2023-02-10T14:23:49;101246.19;;;4.63;75.17
47166;BME280;32930;51.112;13.762;2023-02-10T14:26:28;101248.50;;;4.73;75.62
47166;BME280;32930;51.112;13.762;2023-02-10T14:28:57;101249.75;;;4.96;73.81
47166;BME280;32930;51.112;13.762;2023-02-10T14:31:27;101245.38;;;4.94;73.83
47166;BME280;32930;51.112;13.762;2023-02-10T14:33:56;101245.31;;;4.77;74.68
47166;BME280;32930;51.112;13.762;2023-02-10T14:36:22;101245.66;;;4.69;74.98
47166;BME280;32930;51.112;13.762;2023-02-10T14:38:53;101235.31;;;4.80;73.48
47166;BME280;32930;51.112;13.762;2023-02-10T14:41:21;101235.31;;;4.80;74.18
47166;BME280;32930;51.112;13.762;2023-02-10T14:43:48;101238.03;;;4.83;74.00
47166;BME280;32930;51.112;13.762;2023-02-10T14:46:47;101235.31;;;4.95;73.70
47166;BME280;32930;51.112;13.762;2023-02-10T14:49:19;101232.59;;;4.92;73.14
47166;BME280;32930;51.112;13.762;2023-02-10T14:51:46;101234.63;;;4.83;73.82
47166;BME280;32930;51.112;13.762;2023-02-10T14:54:23;101230.00;;;4.61;75.43
47166;BME280;32930;51.112;13.762;2023-02-10T14:56:53;101231.03;;;4.64;76.24
47166;BME280;32930;51.112;13.762;2023-02-10T14:59:30;101238.16;;;4.70;75.82
47166;BME280;32930;51.112;13.762;2023-02-10T15:02:13;101233.84;;;4.69;75.91
47166;BME280;32930;51.112;13.762;2023-02-10T15:04:47;101227.72;;;4.65;75.44
47166;BME280;32930;51.112;13.762;2023-02-10T15:07:39;101228.50;;;4.79;75.07
47166;BME280;32930;51.112;13.762;2023-02-10T15:10:35;101226.47;;;4.74;74.84
47166;BME280;32930;51.112;13.762;2023-02-10T15:13:07;101220.53;;;4.73;75.04
47166;BME280;32930;51.112;13.762;2023-02-10T15:15:36;101218.81;;;4.88;74.19
47166;BME280;32930;51.112;13.762;2023-02-10T15:18:18;101219.25;;;4.81;74.51
47166;BME280;32930;51.112;13.762;2023-02-10T15:20:56;101220.56;;;4.90;74.39
47166;BME280;32930;51.112;13.762;2023-02-10T15:23:22;101210.06;;;4.83;73.79
47166;BME280;32930;51.112;13.762;2023-02-10T15:28:28;101219.78;;;4.76;74.65
47166;BME280;32930;51.112;13.762;2023-02-10T15:31:26;101224.06;;;4.92;73.87
47166;BME280;32930;51.112;13.762;2023-02-10T15:34:02;101214.97;;;4.80;74.61
47166;BME280;32930;51.112;13.762;2023-02-10T15:37:31;101215.94;;;4.82;74.54
47166;BME280;32930;51.112;13.762;2023-02-10T15:40:00;101209.38;;;4.86;73.77
47166;BME280;32930;51.112;13.762;2023-02-10T15:46:14;101215.78;;;4.79;74.13
47166;BME280;32930;51.112;13.762;2023-02-10T15:51:28;101204.13;;;4.68;74.96
47166;BME280;32930;51.112;13.762;2023-02-10T15:53:56;101207.66;;;4.70;74.98
47166;BME280;32930;51.112;13.762;2023-02-10T15:56:28;101204.00;;;4.81;74.38
47166;BME280;32930;51.112;13.762;2023-02-10T15:58:54;101199.91;;;4.83;73.81
47166;BME280;32930;51.112;13.762;2023-02-10T16:01:29;101200.53;;;4.79;73.90
47166;BME280;32930;51.112;13.762;2023-02-10T16:04:03;101207.34;;;4.80;74.08
47166;BME280;32930;51.112;13.762;2023-02-10T16:06:29;101209.38;;;4.86;73.59
47166;BME280;32930;51.112;13.762;2023-02-10T16:08:55;101206.19;;;4.90;72.95
47166;BME280;32930;51.112;13.762;2023-02-10T16:11:23;101211.19;;;4.88;73.02
47166;BME280;32930;51.112;13.762;2023-02-10T16:13:51;101205.16;;;4.86;73.16
47166;BME280;32930;51.112;13.762;2023-02-10T16:16:16;101207.59;;;4.85;73.45
47166;BME280;32930;51.112;13.762;2023-02-10T16:18:42;101208.50;;;4.85;73.30
47166;BME280;32930;51.112;13.762;2023-02-10T16:21:11;101203.78;;;4.77;73.71
47166;BME280;32930;51.112;13.762;2023-02-10T16:23:42;101211.94;;;4.71;74.01
47166;BME280;32930;51.112;13.762;2023-02-10T16:26:21;101218.66;;;4.85;73.27
47166;BME280;32930;51.112;13.762;2023-02-10T16:29:05;101214.63;;;4.89;73.09
47166;BME280;32930;51.112;13.762;2023-02-10T16:31:30;101214.53;;;4.87;72.60
47166;BME280;32930;51.112;13.762;2023-02-10T16:34:01;101214.19;;;4.81;73.23
47166;BME280;32930;51.112;13.762;2023-02-10T16:36:36;101215.38;;;4.88;72.92
47166;BME280;32930;51.112;13.762;2023-02-10T16:39:14;101215.50;;;4.90;73.22
47166;BME280;32930;51.112;13.762;2023-02-10T16:41:47;101211.97;;;4.87;73.49
47166;BME280;32930;51.112;13.762;2023-02-10T16:44:27;101209.59;;;4.91;72.95
47166;BME280;32930;51.112;13.762;2023-02-10T16:46:54;101211.97;;;4.87;72.81
47166;BME280;32930;51.112;13.762;2023-02-10T16:49:19;101202.84;;;4.91;72.87
47166;BME280;32930;51.112;13.762;2023-02-10T16:51:46;101204.34;;;4.87;73.04
47166;BME280;32930;51.112;13.762;2023-02-10T16:54:12;101206.56;;;4.81;72.70
47166;BME280;32930;51.112;13.762;2023-02-10T16:56:56;101199.72;;;4.80;72.82
47166;BME280;32930;51.112;13.762;2023-02-10T16:59:21;101204.75;;;4.64;73.14
47166;BME280;32930;51.112;13.762;2023-02-10T17:01:50;101209.56;;;4.74;72.76
47166;BME280;32930;51.112;13.762;2023-02-10T22:03:11;101106.34;;;3.71;69.40
47166;BME280;32930;51.112;13.762;2023-02-10T22:05:37;101105.56;;;3.57;69.77
47166;BME280;32930;51.112;13.762;2023-02-10T22:21:13;101099.34;;;3.52;70.33
47166;BME280;32930;51.112;13.762;2023-02-10T22:23:40;101100.31;;;3.54;69.85
47166;BME280;32930;51.112;13.762;2023-02-10T22:26:11;101101.03;;;3.66;70.26
47166;BME280;32930;51.112;13.762;2023-02-10T22:28:38;101098.38;;;3.65;69.50
47166;BME280;32930;51.112;13.762;2023-02-10T22:31:06;101087.38;;;3.64;69.69
47166;BME280;32930;51.112;13.762;2023-02-10T22:49:05;101073.53;;;3.44;71.39
47166;BME280;32930;51.112;13.762;2023-02-10T22:51:39;101069.94;;;3.41;71.66
